createdAt,value
2019-02-21T00:00:49.932Z,5.80
2019-02-21T00:01:49.923Z,4.30
2019-02-21T00:02:49.918Z,5.60
2019-02-21T00:03:49.897Z,5.50
2019-02-21T00:04:49.919Z,5.50
2019-02-21T00:05:49.881Z,4.70
2019-02-21T00:06:49.874Z,5.20
2019-02-21T00:07:49.858Z,5.20
2019-02-21T00:08:49.846Z,5.70
2019-02-21T00:09:49.840Z,5.20
2019-02-21T00:10:49.840Z,6.10
2019-02-21T00:11:49.901Z,5.90
2019-02-21T00:12:49.811Z,5.80
2019-02-21T00:13:49.807Z,6.00
2019-02-21T00:14:49.788Z,7.00
2019-02-21T00:15:49.848Z,5.30
2019-02-21T00:16:49.776Z,5.70
2019-02-21T00:17:49.756Z,5.50
2019-02-21T00:18:49.745Z,5.40
2019-02-21T00:19:49.730Z,5.70
2019-02-21T00:20:49.718Z,5.20
2019-02-21T00:21:49.709Z,5.10
2019-02-21T00:22:49.717Z,4.50
2019-02-21T00:23:49.698Z,5.20
2019-02-21T00:24:49.677Z,5.50
2019-02-21T00:25:49.670Z,5.60
2019-02-21T00:26:49.676Z,5.00
2019-02-21T00:27:49.642Z,5.00
2019-02-21T00:28:49.662Z,5.70
2019-02-21T00:29:49.632Z,5.30
2019-02-21T00:30:49.609Z,5.20
2019-02-21T00:31:49.619Z,4.00
2019-02-21T00:32:49.590Z,5.60
2019-02-21T00:33:49.593Z,5.20
2019-02-21T00:34:49.593Z,5.80
2019-02-21T00:35:49.568Z,5.00
2019-02-21T00:36:49.551Z,5.80
2019-02-21T00:37:49.539Z,5.40
2019-02-21T00:38:49.533Z,4.90
2019-02-21T00:39:49.517Z,5.40
2019-02-21T00:40:49.527Z,4.80
2019-02-21T00:41:49.489Z,5.80
2019-02-21T00:42:49.486Z,5.60
2019-02-21T00:43:49.489Z,5.20
2019-02-21T00:44:49.466Z,5.60
2019-02-21T00:45:49.454Z,5.50
2019-02-21T00:46:49.485Z,5.30
2019-02-21T00:47:49.428Z,5.00
2019-02-21T00:48:49.418Z,4.80
2019-02-21T00:49:49.418Z,5.80
2019-02-21T00:50:49.396Z,5.40
2019-02-21T00:51:49.384Z,4.60
2019-02-21T00:52:49.390Z,5.20
2019-02-21T00:53:49.364Z,4.70
2019-02-21T00:54:49.363Z,5.30
2019-02-21T00:55:49.336Z,5.30
2019-02-21T00:56:49.326Z,5.50
2019-02-21T00:57:49.325Z,4.90
2019-02-21T00:58:49.323Z,4.40
2019-02-21T00:59:50.902Z,5.60
2019-02-21T01:00:49.304Z,5.10
2019-02-21T01:01:49.278Z,5.30
2019-02-21T01:02:49.266Z,4.80
2019-02-21T01:03:49.252Z,5.30
2019-02-21T01:04:49.268Z,4.60
2019-02-21T01:05:49.234Z,4.60
2019-02-21T01:06:49.248Z,5.80
2019-02-21T01:07:49.214Z,5.30
2019-02-21T01:08:49.208Z,6.10
2019-02-21T01:09:49.192Z,5.80
2019-02-21T01:10:49.192Z,6.40
2019-02-21T01:11:49.173Z,5.40
2019-02-21T01:12:49.176Z,6.70
2019-02-21T01:13:49.151Z,5.30
2019-02-21T01:14:49.150Z,5.30
2019-02-21T01:15:49.150Z,5.70
2019-02-21T01:16:49.130Z,4.90
2019-02-21T01:17:49.109Z,5.80
2019-02-21T01:18:49.112Z,5.60
2019-02-21T01:19:49.083Z,4.70
2019-02-21T01:20:49.089Z,6.30
2019-02-21T01:21:49.059Z,5.40
2019-02-21T01:22:49.070Z,6.00
2019-02-21T01:23:49.040Z,5.10
2019-02-21T01:24:49.037Z,6.20
2019-02-21T01:25:49.027Z,4.60
2019-02-21T01:26:49.018Z,5.30
2019-02-21T01:27:48.995Z,6.00
2019-02-21T01:28:49.005Z,5.60
2019-02-21T01:29:48.986Z,5.60
2019-02-21T01:30:56.609Z,4.90
2019-02-21T01:31:49.954Z,6.10
2019-02-21T01:32:49.033Z,5.00
2019-02-21T01:33:48.939Z,5.20
2019-02-21T01:34:48.945Z,5.60
2019-02-21T01:35:48.915Z,5.30
2019-02-21T01:36:48.914Z,5.00
2019-02-21T01:37:48.901Z,5.90
2019-02-21T01:38:48.878Z,5.40
2019-02-21T01:39:48.869Z,4.80
2019-02-21T01:40:48.872Z,5.70
2019-02-21T01:41:48.846Z,4.90
2019-02-21T01:42:48.833Z,6.30
2019-02-21T01:43:48.835Z,5.90
2019-02-21T01:44:48.811Z,6.20
2019-02-21T01:45:48.808Z,5.40
2019-02-21T01:46:48.814Z,5.60
2019-02-21T01:47:48.782Z,5.80
2019-02-21T01:48:48.779Z,4.60
2019-02-21T01:49:48.766Z,5.90
2019-02-21T01:50:48.753Z,4.70
2019-02-21T01:51:48.744Z,5.40
2019-02-21T01:52:48.772Z,5.10
2019-02-21T01:53:48.721Z,5.70
2019-02-21T01:54:48.752Z,5.50
2019-02-21T01:55:48.709Z,4.40
2019-02-21T01:56:48.688Z,5.70
2019-02-21T01:57:48.682Z,5.50
2019-02-21T01:58:48.689Z,4.80
2019-02-21T01:59:48.669Z,5.40
2019-02-21T02:00:48.645Z,5.20
2019-02-21T02:01:48.647Z,4.50
2019-02-21T02:02:48.660Z,4.20
2019-02-21T02:03:48.616Z,6.10
2019-02-21T02:04:48.618Z,5.20
2019-02-21T02:05:48.608Z,4.80
2019-02-21T02:06:48.586Z,5.30
2019-02-21T02:07:48.571Z,5.60
2019-02-21T02:08:48.573Z,5.20
2019-02-21T02:09:48.570Z,5.30
2019-02-21T02:10:48.607Z,5.90
2019-02-21T02:11:48.531Z,5.50
2019-02-21T02:12:48.526Z,5.40
2019-02-21T02:13:48.514Z,5.90
2019-02-21T02:14:48.504Z,5.50
2019-02-21T02:15:48.499Z,6.00
2019-02-21T02:16:48.520Z,5.40
2019-02-21T02:17:48.470Z,5.90
2019-02-21T02:18:48.460Z,4.50
2019-02-21T02:19:48.451Z,5.60
2019-02-21T02:20:48.439Z,4.70
2019-02-21T02:21:48.430Z,5.00
2019-02-21T02:22:48.432Z,5.90
2019-02-21T02:23:48.422Z,5.00
2019-02-21T02:24:48.403Z,5.80
2019-02-21T02:25:48.391Z,5.50
2019-02-21T02:26:48.377Z,4.50
2019-02-21T02:27:48.365Z,4.60
2019-02-21T02:28:48.377Z,6.10
2019-02-21T02:29:48.355Z,6.20
2019-02-21T02:30:48.337Z,5.90
2019-02-21T02:31:48.323Z,5.40
2019-02-21T02:32:48.314Z,4.70
2019-02-21T02:33:48.302Z,4.80
2019-02-21T02:34:48.346Z,5.60
2019-02-21T02:35:48.281Z,4.10
2019-02-21T02:36:48.275Z,4.30
2019-02-21T02:37:48.265Z,5.00
2019-02-21T02:38:48.252Z,5.20
2019-02-21T02:39:48.239Z,5.70
2019-02-21T02:40:48.248Z,4.50
2019-02-21T02:41:48.224Z,4.90
2019-02-21T02:42:48.213Z,4.80
2019-02-21T02:43:48.194Z,6.10
2019-02-21T02:44:48.192Z,4.90
2019-02-21T02:45:48.178Z,5.00
2019-02-21T02:46:48.188Z,6.10
2019-02-21T02:47:48.155Z,6.10
2019-02-21T02:48:48.158Z,5.30
2019-02-21T02:49:48.144Z,5.70
2019-02-21T02:50:48.131Z,5.20
2019-02-21T02:51:48.127Z,4.80
2019-02-21T02:52:48.124Z,5.60
2019-02-21T02:53:48.097Z,5.40
2019-02-21T02:54:48.093Z,5.40
2019-02-21T02:55:48.103Z,5.50
2019-02-21T02:56:48.063Z,5.80
2019-02-21T02:57:48.062Z,5.10
2019-02-21T02:58:48.058Z,5.10
2019-02-21T02:59:48.033Z,5.10
2019-02-21T03:00:48.038Z,4.70
2019-02-21T03:01:48.011Z,5.30
2019-02-21T03:02:47.998Z,5.20
2019-02-21T03:03:48.008Z,4.50
2019-02-21T03:04:48.024Z,5.70
2019-02-21T03:05:47.969Z,6.10
2019-02-21T03:06:47.956Z,5.50
2019-02-21T03:07:47.950Z,5.30
2019-02-21T03:08:47.938Z,5.40
2019-02-21T03:09:47.928Z,4.80
2019-02-21T03:10:47.937Z,4.90
2019-02-21T03:11:51.527Z,5.90
2019-02-21T03:12:47.894Z,5.20
2019-02-21T03:13:47.889Z,5.10
2019-02-21T03:14:47.879Z,6.60
2019-02-21T03:15:47.865Z,4.20
2019-02-21T03:16:47.868Z,5.50
2019-02-21T03:17:47.863Z,5.30
2019-02-21T03:18:47.831Z,4.30
2019-02-21T03:19:47.831Z,4.60
2019-02-21T03:20:47.826Z,5.80
2019-02-21T03:21:47.801Z,5.10
2019-02-21T03:22:47.812Z,5.10
2019-02-21T03:23:47.782Z,4.90
2019-02-21T03:24:47.776Z,5.40
2019-02-21T03:25:47.782Z,5.40
2019-02-21T03:26:47.765Z,5.70
2019-02-21T03:27:47.739Z,6.20
2019-02-21T03:28:47.760Z,5.20
2019-02-21T03:29:47.712Z,4.70
2019-02-21T03:30:47.703Z,5.70
2019-02-21T03:31:54.819Z,4.90
2019-02-21T03:32:48.685Z,5.30
2019-02-21T03:33:47.669Z,5.60
2019-02-21T03:34:47.701Z,5.80
2019-02-21T03:35:47.653Z,5.20
2019-02-21T03:36:47.657Z,5.40
2019-02-21T03:37:47.630Z,5.10
2019-02-21T03:38:47.627Z,4.30
2019-02-21T03:39:47.604Z,4.60
2019-02-21T03:40:47.610Z,6.00
2019-02-21T03:41:47.597Z,6.10
2019-02-21T03:42:47.576Z,5.50
2019-02-21T03:43:47.573Z,5.10
2019-02-21T03:44:47.561Z,5.30
2019-02-21T03:45:47.557Z,4.50
2019-02-21T03:46:47.557Z,5.10
2019-02-21T03:47:47.527Z,5.10
2019-02-21T03:48:47.518Z,5.50
2019-02-21T03:49:47.507Z,5.30
2019-02-21T03:50:47.493Z,5.50
2019-02-21T03:51:47.489Z,5.40
2019-02-21T03:52:47.508Z,5.00
2019-02-21T03:53:47.460Z,5.00
2019-02-21T03:54:47.460Z,5.30
2019-02-21T03:55:47.441Z,5.80
2019-02-21T03:56:47.435Z,5.10
2019-02-21T03:57:47.418Z,5.40
2019-02-21T03:58:47.422Z,5.20
2019-02-21T03:59:47.395Z,5.30
2019-02-21T04:00:47.393Z,5.30
2019-02-21T04:01:47.396Z,5.10
2019-02-21T04:02:47.369Z,5.30
2019-02-21T04:03:47.368Z,4.40
2019-02-21T04:04:47.384Z,6.50
2019-02-21T04:05:47.336Z,5.90
2019-02-21T04:06:47.325Z,5.10
2019-02-21T04:07:47.313Z,5.40
2019-02-21T04:08:47.329Z,4.70
2019-02-21T04:09:47.309Z,5.50
2019-02-21T04:10:47.306Z,5.20
2019-02-21T04:11:47.281Z,5.40
2019-02-21T04:12:47.262Z,5.90
2019-02-21T04:13:47.252Z,4.30
2019-02-21T04:14:47.245Z,4.70
2019-02-21T04:15:47.259Z,5.40
2019-02-21T04:16:47.243Z,5.80
2019-02-21T04:17:47.275Z,4.90
2019-02-21T04:18:47.202Z,5.20
2019-02-21T04:19:47.191Z,6.30
2019-02-21T04:20:47.179Z,4.90
2019-02-21T04:21:47.173Z,5.40
2019-02-21T04:22:47.169Z,5.20
2019-02-21T04:23:47.146Z,4.60
2019-02-21T04:24:47.144Z,6.00
2019-02-21T04:25:47.121Z,5.10
2019-02-21T04:26:48.126Z,5.10
2019-02-21T04:27:47.115Z,6.10
2019-02-21T04:28:49.620Z,4.70
2019-02-21T04:29:47.626Z,5.80
2019-02-21T04:30:47.124Z,4.20
2019-02-21T04:31:47.066Z,5.50
2019-02-21T04:32:47.045Z,5.70
2019-02-21T04:33:47.041Z,5.50
2019-02-21T04:34:47.050Z,4.30
2019-02-21T04:35:47.020Z,4.90
2019-02-21T04:36:47.008Z,5.00
2019-02-21T04:37:46.995Z,4.70
2019-02-21T04:38:46.984Z,5.40
2019-02-21T04:39:46.976Z,4.30
2019-02-21T04:40:46.992Z,5.20
2019-02-21T04:41:46.952Z,6.50
2019-02-21T04:42:46.949Z,4.80
2019-02-21T04:43:46.966Z,4.80
2019-02-21T04:44:46.924Z,5.00
2019-02-21T04:45:46.911Z,4.70
2019-02-21T04:46:46.914Z,5.00
2019-02-21T04:47:46.892Z,4.40
2019-02-21T04:48:46.880Z,5.30
2019-02-21T04:49:46.873Z,5.20
2019-02-21T04:50:46.860Z,5.10
2019-02-21T04:51:46.849Z,4.30
2019-02-21T04:52:46.858Z,4.60
2019-02-21T04:53:46.850Z,5.90
2019-02-21T04:54:46.835Z,5.50
2019-02-21T04:55:46.872Z,3.90
2019-02-21T04:56:46.820Z,4.90
2019-02-21T04:57:46.809Z,4.90
2019-02-21T04:58:46.787Z,5.80
2019-02-21T04:59:46.766Z,5.30
2019-02-21T05:00:46.763Z,5.90
2019-02-21T05:01:46.745Z,4.90
2019-02-21T05:02:46.738Z,4.70
2019-02-21T05:03:46.722Z,6.00
2019-02-21T05:04:46.722Z,5.90
2019-02-21T05:05:46.699Z,4.30
2019-02-21T05:06:46.692Z,4.70
2019-02-21T05:07:46.684Z,5.40
2019-02-21T05:08:46.683Z,5.20
2019-02-21T05:09:57.443Z,4.00
2019-02-21T05:10:47.677Z,4.90
2019-02-21T05:11:53.671Z,6.50
2019-02-21T05:12:46.625Z,4.10
2019-02-21T05:13:46.612Z,4.60
2019-02-21T05:14:46.717Z,4.90
2019-02-21T05:15:46.602Z,5.50
2019-02-21T05:16:46.606Z,5.20
2019-02-21T05:17:46.573Z,5.60
2019-02-21T05:18:46.561Z,4.90
2019-02-21T05:19:46.552Z,5.40
2019-02-21T05:20:46.539Z,5.50
2019-02-21T05:21:46.524Z,5.20
2019-02-21T05:22:46.527Z,5.50
2019-02-21T05:23:46.507Z,5.30
2019-02-21T05:24:46.496Z,5.30
2019-02-21T05:25:46.487Z,6.30
2019-02-21T05:26:46.476Z,5.90
2019-02-21T05:27:46.467Z,5.20
2019-02-21T05:28:46.478Z,5.10
2019-02-21T05:29:46.444Z,5.00
2019-02-21T05:30:46.434Z,5.70
2019-02-21T05:31:46.428Z,4.80
2019-02-21T05:32:46.415Z,5.10
2019-02-21T05:33:46.403Z,3.80
2019-02-21T05:34:46.406Z,4.70
2019-02-21T05:35:46.380Z,5.00
2019-02-21T05:36:46.370Z,5.60
2019-02-21T05:37:46.357Z,5.60
2019-02-21T05:38:46.348Z,5.60
2019-02-21T05:39:46.339Z,5.20
2019-02-21T05:40:46.365Z,5.60
2019-02-21T05:41:46.319Z,5.10
2019-02-21T05:42:46.312Z,4.40
2019-02-21T05:43:46.296Z,5.50
2019-02-21T05:44:46.288Z,5.40
2019-02-21T05:45:46.983Z,5.20
2019-02-21T05:46:46.280Z,6.20
2019-02-21T05:47:46.255Z,4.80
2019-02-21T05:48:46.243Z,6.20
2019-02-21T05:49:46.233Z,5.80
2019-02-21T05:50:46.223Z,5.00
2019-02-21T05:51:46.209Z,6.50
2019-02-21T05:52:46.212Z,5.70
2019-02-21T05:53:46.195Z,6.30
2019-02-21T05:54:46.185Z,5.50
2019-02-21T05:55:46.167Z,6.10
2019-02-21T05:56:46.158Z,5.20
2019-02-21T05:57:46.155Z,5.30
2019-02-21T05:58:46.159Z,5.60
2019-02-21T05:59:46.128Z,4.90
2019-02-21T06:00:46.117Z,5.60
2019-02-21T06:01:46.107Z,4.60
2019-02-21T06:02:53.292Z,6.30
2019-02-21T06:03:47.098Z,4.60
2019-02-21T06:04:46.074Z,4.70
2019-02-21T06:05:46.066Z,5.30
2019-02-21T06:06:46.051Z,4.60
2019-02-21T06:07:46.050Z,6.10
2019-02-21T06:08:46.036Z,5.50
2019-02-21T06:09:46.037Z,5.00
2019-02-21T06:10:46.011Z,5.10
2019-02-21T06:11:46.001Z,5.20
2019-02-21T06:12:45.993Z,5.60
2019-02-21T06:13:45.975Z,5.00
2019-02-21T06:14:45.969Z,5.60
2019-02-21T06:15:45.977Z,6.50
2019-02-21T06:16:45.949Z,6.30
2019-02-21T06:17:45.950Z,5.00
2019-02-21T06:18:45.931Z,6.10
2019-02-21T06:19:48.048Z,5.20
2019-02-21T06:20:45.916Z,5.20
2019-02-21T06:21:45.911Z,5.90
2019-02-21T06:22:45.893Z,5.90
2019-02-21T06:23:45.881Z,5.20
2019-02-21T06:24:45.864Z,5.80
2019-02-21T06:25:51.410Z,4.90
2019-02-21T06:26:46.868Z,6.00
2019-02-21T06:27:45.834Z,5.00
2019-02-21T06:28:45.821Z,5.40
2019-02-21T06:29:45.811Z,4.10
2019-02-21T06:30:45.811Z,5.10
2019-02-21T06:31:45.790Z,5.50
2019-02-21T06:32:45.792Z,5.10
2019-02-21T06:33:45.772Z,5.70
2019-02-21T06:34:45.757Z,4.90
2019-02-21T06:35:45.756Z,5.80
2019-02-21T06:36:45.744Z,5.60
2019-02-21T06:37:45.728Z,4.70
2019-02-21T06:38:45.728Z,5.60
2019-02-21T06:39:45.705Z,4.70
2019-02-21T06:40:47.055Z,5.00
2019-02-21T06:41:45.685Z,5.20
2019-02-21T06:42:45.712Z,5.60
2019-02-21T06:43:45.668Z,5.50
2019-02-21T06:44:45.697Z,5.40
2019-02-21T06:45:45.651Z,6.00
2019-02-21T06:46:45.637Z,5.50
2019-02-21T06:47:45.622Z,4.60
2019-02-21T06:48:45.612Z,5.20
2019-02-21T06:49:45.604Z,4.90
2019-02-21T06:50:47.621Z,5.40
2019-02-21T06:51:45.580Z,5.40
2019-02-21T06:52:45.567Z,5.20
2019-02-21T06:53:45.555Z,6.10
2019-02-21T06:54:45.545Z,4.90
2019-02-21T06:55:45.535Z,5.30
2019-02-21T06:56:45.544Z,4.40
2019-02-21T06:57:45.520Z,5.30
2019-02-21T06:58:45.504Z,5.60
2019-02-21T06:59:45.566Z,6.60
2019-02-21T07:00:46.217Z,5.80
2019-02-21T07:01:45.470Z,5.20
2019-02-21T07:02:45.480Z,6.60
2019-02-21T07:03:45.447Z,6.00
2019-02-21T07:04:45.438Z,5.60
2019-02-21T07:05:45.428Z,5.10
2019-02-21T07:06:45.418Z,5.30
2019-02-21T07:07:45.406Z,5.40
2019-02-21T07:08:45.420Z,5.40
2019-02-21T07:09:45.389Z,7.40
2019-02-21T07:10:45.378Z,6.80
2019-02-21T07:11:46.053Z,7.10
2019-02-21T07:12:45.355Z,6.80
2019-02-21T07:13:45.342Z,5.10
2019-02-21T07:14:45.348Z,5.70
2019-02-21T07:15:45.324Z,6.00
2019-02-21T07:16:45.311Z,6.50
2019-02-21T07:17:49.208Z,8.50
2019-02-21T07:18:45.293Z,9.30
2019-02-21T07:19:45.278Z,9.70
2019-02-21T07:20:45.288Z,9.80
2019-02-21T07:21:45.263Z,11.60
2019-02-21T07:22:45.247Z,12.50
2019-02-21T07:23:45.237Z,10.70
2019-02-21T07:24:45.228Z,7.40
2019-02-21T07:25:45.236Z,7.10
2019-02-21T07:26:45.222Z,6.40
2019-02-21T07:27:45.199Z,6.70
2019-02-21T07:28:45.183Z,6.30
2019-02-21T07:29:45.173Z,5.80
2019-02-21T07:30:45.164Z,6.50
2019-02-21T07:31:45.152Z,6.70
2019-02-21T07:32:45.155Z,7.90
2019-02-21T07:33:45.128Z,8.30
2019-02-21T07:34:45.119Z,8.10
2019-02-21T07:35:45.111Z,9.10
2019-02-21T07:36:45.097Z,7.90
2019-02-21T07:37:45.087Z,7.90
2019-02-21T07:38:45.100Z,8.20
2019-02-21T07:39:45.064Z,6.40
2019-02-21T07:40:45.055Z,5.90
2019-02-21T07:41:45.044Z,6.80
2019-02-21T07:42:45.035Z,7.40
2019-02-21T07:43:45.026Z,6.20
2019-02-21T07:44:45.485Z,6.60
2019-02-21T07:45:45.005Z,5.30
2019-02-21T07:46:46.332Z,6.10
2019-02-21T07:47:44.978Z,5.50
2019-02-21T07:48:44.968Z,6.30
2019-02-21T07:49:44.955Z,6.40
2019-02-21T07:50:44.958Z,7.20
2019-02-21T07:51:44.934Z,5.60
2019-02-21T07:52:44.924Z,5.90
2019-02-21T07:53:44.911Z,6.00
2019-02-21T07:54:44.902Z,6.10
2019-02-21T07:55:44.892Z,5.10
2019-02-21T07:56:44.999Z,5.50
2019-02-21T07:57:44.876Z,4.40
2019-02-21T07:58:44.859Z,5.50
2019-02-21T07:59:44.845Z,5.10
2019-02-21T08:00:44.840Z,5.60
2019-02-21T08:01:44.836Z,5.90
2019-02-21T08:02:44.831Z,4.70
2019-02-21T08:03:48.094Z,4.90
2019-02-21T08:04:44.802Z,4.90
2019-02-21T08:05:44.780Z,4.40
2019-02-21T08:06:44.773Z,4.40
2019-02-21T08:07:44.764Z,5.30
2019-02-21T08:08:45.111Z,5.80
2019-02-21T08:09:44.741Z,5.60
2019-02-21T08:10:44.731Z,5.20
2019-02-21T08:11:44.716Z,5.30
2019-02-21T08:12:44.714Z,4.60
2019-02-21T08:13:44.696Z,5.30
2019-02-21T08:14:44.703Z,6.50
2019-02-21T08:15:44.677Z,5.60
2019-02-21T08:16:44.666Z,5.50
2019-02-21T08:17:44.653Z,6.00
2019-02-21T08:18:44.640Z,6.70
2019-02-21T08:19:44.638Z,7.10
2019-02-21T08:20:44.641Z,5.30
2019-02-21T08:21:44.666Z,5.10
2019-02-21T08:22:44.600Z,5.80
2019-02-21T08:23:50.449Z,5.80
2019-02-21T08:24:45.578Z,4.20
2019-02-21T08:25:44.569Z,4.50
2019-02-21T08:26:44.572Z,5.90
2019-02-21T08:27:44.544Z,6.10
2019-02-21T08:28:44.534Z,5.80
2019-02-21T08:29:44.524Z,5.40
2019-02-21T08:30:44.510Z,5.60
2019-02-21T08:31:44.500Z,4.70
2019-02-21T08:32:44.505Z,5.20
2019-02-21T08:33:47.078Z,5.00
2019-02-21T08:34:48.040Z,6.00
2019-02-21T08:35:44.454Z,5.10
2019-02-21T08:36:44.445Z,5.50
2019-02-21T08:37:44.432Z,5.70
2019-02-21T08:38:44.438Z,5.00
2019-02-21T08:39:44.413Z,5.50
2019-02-21T08:40:44.401Z,5.50
2019-02-21T08:41:44.391Z,5.10
2019-02-21T08:42:44.382Z,5.50
2019-02-21T08:43:44.369Z,5.20
2019-02-21T08:44:44.378Z,5.50
2019-02-21T08:45:44.346Z,4.30
2019-02-21T08:46:44.337Z,4.50
2019-02-21T08:47:44.327Z,5.40
2019-02-21T08:48:44.314Z,6.00
2019-02-21T08:49:44.301Z,5.90
2019-02-21T08:50:44.307Z,5.80
2019-02-21T08:51:44.281Z,6.30
2019-02-21T08:52:44.271Z,6.10
2019-02-21T08:53:44.264Z,5.60
2019-02-21T08:54:44.250Z,6.40
2019-02-21T08:55:44.238Z,6.50
2019-02-21T08:56:44.243Z,6.50
2019-02-21T08:57:44.214Z,6.00
2019-02-21T08:58:44.204Z,5.40
2019-02-21T08:59:44.236Z,6.00
2019-02-21T09:00:44.190Z,6.30
2019-02-21T09:01:44.169Z,6.40
2019-02-21T09:02:44.179Z,6.00
2019-02-21T09:03:44.150Z,5.50
2019-02-21T09:04:44.137Z,5.60
2019-02-21T09:05:44.130Z,7.00
2019-02-21T09:06:44.114Z,6.00
2019-02-21T09:07:46.186Z,6.10
2019-02-21T09:08:44.109Z,6.50
2019-02-21T09:09:44.084Z,5.80
2019-02-21T09:10:44.097Z,5.50
2019-02-21T09:11:44.062Z,6.80
2019-02-21T09:12:48.232Z,6.80
2019-02-21T09:13:44.041Z,6.20
2019-02-21T09:14:44.042Z,5.70
2019-02-21T09:15:46.474Z,5.90
2019-02-21T09:16:44.004Z,7.10
2019-02-21T09:17:43.997Z,6.40
2019-02-21T09:18:43.986Z,5.90
2019-02-21T09:19:43.972Z,6.90
2019-02-21T09:20:43.984Z,6.00
2019-02-21T09:21:43.952Z,5.90
2019-02-21T09:22:43.991Z,6.20
2019-02-21T09:23:43.930Z,6.50
2019-02-21T09:24:43.939Z,5.90
2019-02-21T09:25:43.907Z,6.90
2019-02-21T09:26:43.922Z,7.50
2019-02-21T09:27:43.909Z,5.50
2019-02-21T09:28:43.875Z,6.30
2019-02-21T09:29:43.862Z,7.10
2019-02-21T09:30:43.852Z,6.40
2019-02-21T09:31:43.841Z,6.50
2019-02-21T09:32:43.843Z,6.50
2019-02-21T09:33:43.981Z,7.80
2019-02-21T09:34:43.811Z,7.30
2019-02-21T09:35:43.797Z,6.60
2019-02-21T09:36:43.785Z,7.30
2019-02-21T09:37:43.779Z,6.90
2019-02-21T09:38:43.782Z,6.00
2019-02-21T09:39:43.758Z,6.40
2019-02-21T09:40:43.744Z,7.00
2019-02-21T09:41:43.730Z,6.50
2019-02-21T09:42:43.725Z,6.20
2019-02-21T09:43:43.708Z,6.20
2019-02-21T09:44:43.715Z,6.30
2019-02-21T09:45:43.685Z,6.60
2019-02-21T09:46:43.678Z,7.10
2019-02-21T09:47:43.666Z,7.00
2019-02-21T09:48:43.655Z,6.20
2019-02-21T09:49:43.643Z,7.00
2019-02-21T09:50:43.649Z,6.30
2019-02-21T09:51:43.622Z,6.90
2019-02-21T09:52:43.613Z,6.80
2019-02-21T09:53:43.602Z,7.00
2019-02-21T09:54:43.592Z,6.50
2019-02-21T09:55:43.583Z,7.50
2019-02-21T09:56:52.289Z,6.60
2019-02-21T09:57:44.555Z,6.40
2019-02-21T09:58:45.814Z,6.50
2019-02-21T09:59:43.534Z,6.70
2019-02-21T10:00:43.525Z,7.40
2019-02-21T10:01:43.511Z,6.70
2019-02-21T10:02:43.519Z,6.40
2019-02-21T10:03:44.324Z,7.00
2019-02-21T10:04:43.485Z,6.30
2019-02-21T10:05:43.471Z,6.60
2019-02-21T10:06:43.459Z,6.00
2019-02-21T10:07:43.451Z,6.50
2019-02-21T10:08:43.454Z,6.40
2019-02-21T10:09:43.426Z,6.50
2019-02-21T10:10:43.412Z,8.00
2019-02-21T10:11:43.403Z,6.70
2019-02-21T10:12:43.393Z,6.70
2019-02-21T10:13:43.386Z,6.90
2019-02-21T10:14:43.383Z,7.70
2019-02-21T10:15:43.358Z,6.70
2019-02-21T10:16:43.351Z,5.90
2019-02-21T10:17:43.343Z,6.80
2019-02-21T10:18:43.326Z,6.00
2019-02-21T10:19:43.316Z,6.20
2019-02-21T10:20:43.322Z,7.00
2019-02-21T10:21:43.293Z,6.20
2019-02-21T10:22:43.286Z,6.30
2019-02-21T10:23:43.277Z,6.60
2019-02-21T10:24:43.255Z,7.10
2019-02-21T10:25:43.259Z,6.30
2019-02-21T10:26:43.256Z,7.10
2019-02-21T10:27:43.226Z,5.90
2019-02-21T10:28:45.045Z,6.60
2019-02-21T10:29:43.207Z,7.50
2019-02-21T10:30:43.195Z,6.30
2019-02-21T10:31:43.185Z,6.50
2019-02-21T10:32:43.193Z,6.80
2019-02-21T10:33:46.900Z,6.30
2019-02-21T10:34:43.555Z,5.90
2019-02-21T10:35:43.141Z,6.50
2019-02-21T10:36:43.131Z,6.90
2019-02-21T10:37:43.124Z,7.90
2019-02-21T10:38:43.127Z,6.80
2019-02-21T10:39:43.102Z,6.60
2019-02-21T10:40:43.084Z,6.70
2019-02-21T10:41:43.074Z,6.60
2019-02-21T10:42:43.065Z,6.60
2019-02-21T10:43:43.059Z,6.90
2019-02-21T10:44:43.055Z,7.00
2019-02-21T10:45:47.789Z,6.20
2019-02-21T10:46:44.019Z,6.50
2019-02-21T10:47:43.010Z,5.80
2019-02-21T10:48:43.000Z,6.20
2019-02-21T10:49:42.984Z,6.20
2019-02-21T10:50:42.991Z,5.90
2019-02-21T10:51:42.965Z,6.00
2019-02-21T10:52:42.953Z,6.80
2019-02-21T10:53:42.950Z,6.80
2019-02-21T10:54:42.930Z,5.90
2019-02-21T10:55:42.920Z,6.80
2019-02-21T10:56:42.924Z,6.70
2019-02-21T10:57:45.373Z,5.50
2019-02-21T10:58:42.887Z,5.10
2019-02-21T10:59:46.735Z,5.60
2019-02-21T11:00:42.869Z,6.90
2019-02-21T11:01:42.854Z,5.90
2019-02-21T11:02:42.892Z,6.20
2019-02-21T11:03:42.832Z,6.60
2019-02-21T11:04:54.089Z,6.50
2019-02-21T11:05:43.810Z,6.00
2019-02-21T11:06:42.800Z,6.10
2019-02-21T11:07:42.792Z,5.80
2019-02-21T11:08:42.790Z,5.90
2019-02-21T11:09:42.767Z,5.10
2019-02-21T11:10:42.755Z,6.80
2019-02-21T11:11:42.745Z,6.70
2019-02-21T11:12:42.732Z,6.10
2019-02-21T11:13:42.723Z,5.60
2019-02-21T11:14:47.500Z,5.80
2019-02-21T11:15:43.702Z,5.50
2019-02-21T11:16:42.688Z,5.20
2019-02-21T11:17:42.679Z,5.90
2019-02-21T11:18:42.668Z,6.30
2019-02-21T11:19:42.656Z,6.50
2019-02-21T11:20:42.662Z,6.00
2019-02-21T11:21:42.634Z,5.80
2019-02-21T11:22:42.628Z,5.50
2019-02-21T11:23:42.611Z,6.10
2019-02-21T11:24:42.610Z,6.50
2019-02-21T11:25:42.589Z,6.10
2019-02-21T11:26:42.595Z,6.40
2019-02-21T11:27:42.566Z,6.00
2019-02-21T11:28:42.556Z,5.70
2019-02-21T11:29:42.549Z,5.90
2019-02-21T11:30:42.534Z,5.00
2019-02-21T11:31:42.525Z,5.10
2019-02-21T11:32:42.534Z,7.00
2019-02-21T11:33:42.502Z,6.20
2019-02-21T11:34:42.501Z,5.90
2019-02-21T11:35:42.480Z,5.30
2019-02-21T11:36:42.470Z,4.70
2019-02-21T11:37:46.313Z,6.00
2019-02-21T11:38:42.464Z,5.20
2019-02-21T11:39:42.435Z,5.60
2019-02-21T11:40:42.426Z,5.50
2019-02-21T11:41:42.419Z,5.20
2019-02-21T11:42:42.408Z,5.40
2019-02-21T11:43:42.394Z,5.70
2019-02-21T11:44:42.398Z,5.90
2019-02-21T11:45:53.228Z,5.60
2019-02-21T11:46:43.364Z,5.90
2019-02-21T11:47:42.351Z,4.90
2019-02-21T11:48:42.339Z,5.60
2019-02-21T11:49:42.330Z,5.20
2019-02-21T11:50:42.348Z,4.90
2019-02-21T11:51:42.307Z,5.40
2019-02-21T11:52:42.296Z,5.40
2019-02-21T11:53:42.283Z,5.60
2019-02-21T11:54:42.272Z,5.30
2019-02-21T11:55:42.264Z,4.70
2019-02-21T11:56:42.266Z,4.90
2019-02-21T11:57:42.241Z,4.10
2019-02-21T11:58:42.228Z,4.70
2019-02-21T11:59:42.218Z,4.70
2019-02-21T12:00:42.205Z,5.00
2019-02-21T12:01:42.201Z,5.10
2019-02-21T12:02:42.213Z,4.90
2019-02-21T12:03:42.177Z,4.60
2019-02-21T12:04:42.164Z,4.50
2019-02-21T12:05:42.151Z,4.30
2019-02-21T12:06:42.147Z,3.90
2019-02-21T12:07:42.129Z,3.60
2019-02-21T12:08:42.132Z,4.90
2019-02-21T12:09:42.106Z,4.00
2019-02-21T12:10:42.097Z,3.80
2019-02-21T12:11:42.084Z,3.90
2019-02-21T12:12:42.078Z,4.30
2019-02-21T12:13:42.068Z,3.80
2019-02-21T12:14:42.072Z,3.10
2019-02-21T12:15:42.051Z,4.20
2019-02-21T12:16:42.034Z,3.40
2019-02-21T12:17:42.946Z,3.00
2019-02-21T12:18:42.010Z,3.00
2019-02-21T12:19:41.998Z,1.90
2019-02-21T12:20:42.001Z,2.50
2019-02-21T12:21:41.976Z,2.10
2019-02-21T12:22:41.966Z,2.50
2019-02-21T12:23:41.953Z,2.80
2019-02-21T12:24:41.945Z,2.60
2019-02-21T12:25:41.935Z,1.90
2019-02-21T12:26:41.934Z,2.40
2019-02-21T12:27:41.917Z,2.50
2019-02-21T12:28:41.944Z,2.70
2019-02-21T12:29:41.888Z,2.60
2019-02-21T12:30:41.876Z,3.20
2019-02-21T12:31:41.866Z,3.20
2019-02-21T12:32:41.872Z,2.50
2019-02-21T12:33:41.844Z,2.50
2019-02-21T12:34:41.834Z,2.40
2019-02-21T12:35:41.821Z,3.00
2019-02-21T12:36:41.812Z,2.90
2019-02-21T12:37:41.813Z,3.40
2019-02-21T12:38:41.836Z,2.90
2019-02-21T12:39:41.785Z,3.10
2019-02-21T12:40:41.767Z,3.20
2019-02-21T12:41:41.758Z,2.60
2019-02-21T12:42:41.744Z,2.50
2019-02-21T12:43:41.736Z,2.90
2019-02-21T12:44:41.738Z,2.70
2019-02-21T12:45:41.712Z,2.60
2019-02-21T12:46:41.699Z,1.70
2019-02-21T12:47:49.362Z,2.10
2019-02-21T12:48:42.682Z,2.40
2019-02-21T12:49:41.669Z,2.10
2019-02-21T12:50:44.501Z,1.80
2019-02-21T12:51:41.646Z,1.70
2019-02-21T12:52:41.637Z,2.20
2019-02-21T12:53:41.625Z,2.40
2019-02-21T12:54:41.614Z,2.10
2019-02-21T12:55:41.602Z,1.70
2019-02-21T12:56:41.611Z,2.40
2019-02-21T12:57:41.580Z,2.30
2019-02-21T12:58:41.569Z,2.20
2019-02-21T12:59:41.557Z,2.40
2019-02-21T13:00:41.552Z,2.10
2019-02-21T13:01:41.538Z,2.10
2019-02-21T13:02:41.580Z,2.30
2019-02-21T13:03:41.512Z,2.50
2019-02-21T13:04:41.506Z,2.40
2019-02-21T13:05:42.631Z,2.10
2019-02-21T13:06:41.488Z,2.30
2019-02-21T13:07:41.471Z,2.10
2019-02-21T13:08:41.476Z,2.10
2019-02-21T13:09:41.450Z,2.10
2019-02-21T13:10:41.438Z,2.40
2019-02-21T13:11:41.425Z,2.10
2019-02-21T13:12:41.418Z,2.60
2019-02-21T13:13:41.405Z,2.50
2019-02-21T13:14:41.405Z,2.20
2019-02-21T13:15:41.385Z,2.50
2019-02-21T13:16:41.370Z,2.10
2019-02-21T13:17:41.364Z,1.90
2019-02-21T13:18:41.351Z,1.90